createdAt,value
2023-04-12T00:00:17.616Z,9.00
2023-04-12T00:00:52.571Z,9.00
2023-04-12T00:01:24.383Z,9.00
2023-04-12T00:01:56.509Z,9.00
2023-04-12T00:02:30.734Z,9.00
2023-04-12T00:03:05.415Z,9.00
2023-04-12T00:03:37.409Z,9.00
2023-04-12T00:04:10.988Z,9.00
2023-04-12T00:04:43.052Z,9.00
2023-04-12T00:05:16.500Z,8.90
2023-04-12T00:05:54.548Z,8.90
2023-04-12T00:06:32.464Z,8.90
2023-04-12T00:07:05.912Z,8.90
2023-04-12T00:07:39.153Z,8.90
2023-04-12T00:08:11.311Z,8.90
2023-04-12T00:08:46.679Z,8.80
2023-04-12T00:09:19.496Z,8.80
2023-04-12T00:09:51.562Z,8.80
2023-04-12T00:10:24.439Z,8.80
2023-04-12T00:10:56.271Z,8.80
2023-04-12T00:11:28.740Z,8.90
2023-04-12T00:12:01.839Z,8.90
2023-04-12T00:12:33.864Z,8.90
2023-04-12T00:13:05.884Z,8.90
2023-04-12T00:13:38.673Z,8.90
2023-04-12T00:14:10.551Z,8.90
2023-04-12T00:14:42.386Z,8.80
2023-04-12T00:15:15.453Z,8.80
2023-04-12T00:15:47.363Z,8.80
2023-04-12T00:16:19.222Z,8.80
2023-04-12T00:16:51.201Z,8.80
2023-04-12T00:17:24.062Z,8.80
2023-04-12T00:17:57.295Z,8.80
2023-04-12T00:18:29.156Z,8.80
2023-04-12T00:19:03.272Z,8.80
2023-04-12T00:19:35.256Z,8.80
2023-04-12T00:20:11.994Z,8.80
2023-04-12T00:20:45.094Z,8.80
2023-04-12T00:21:19.503Z,8.80
2023-04-12T00:21:51.349Z,8.80
2023-04-12T00:22:24.152Z,8.80
2023-04-12T00:22:57.438Z,8.80
2023-04-12T00:23:29.287Z,8.70
2023-04-12T00:24:02.166Z,8.70
2023-04-12T00:24:34.034Z,8.70
2023-04-12T00:25:06.755Z,8.70
2023-04-12T00:25:39.582Z,8.70
2023-04-12T00:26:11.387Z,8.70
2023-04-12T00:26:43.217Z,8.80
2023-04-12T00:27:15.982Z,8.80
2023-04-12T00:27:47.807Z,8.80
2023-04-12T00:28:19.616Z,8.70
2023-04-12T00:28:52.484Z,8.70
2023-04-12T00:29:24.284Z,8.80
2023-04-12T00:29:56.431Z,8.80
2023-04-12T00:30:29.186Z,8.90
2023-04-12T00:31:01.035Z,8.70
2023-04-12T00:31:32.874Z,8.70
2023-04-12T00:32:05.987Z,8.70
2023-04-12T00:32:37.867Z,8.70
2023-04-12T00:33:11.147Z,8.70
2023-04-12T00:33:42.971Z,8.70
2023-04-12T00:34:15.826Z,8.70
2023-04-12T00:34:47.638Z,8.70
2023-04-12T00:35:19.584Z,8.70
2023-04-12T00:35:52.371Z,8.70
2023-04-12T00:36:24.196Z,8.70
2023-04-12T00:36:56.322Z,8.70
2023-04-12T00:37:29.320Z,8.70
2023-04-12T00:38:02.800Z,8.70
2023-04-12T00:38:34.669Z,8.70
2023-04-12T00:39:07.682Z,8.80
2023-04-12T00:39:39.474Z,8.80
2023-04-12T00:40:12.549Z,8.80
2023-04-12T00:40:45.836Z,8.80
2023-04-12T00:41:18.073Z,8.80
2023-04-12T00:41:49.945Z,8.80
2023-04-12T00:42:22.803Z,8.80
2023-04-12T00:42:54.597Z,8.80
2023-04-12T00:43:27.640Z,8.80
2023-04-12T00:44:00.619Z,8.80
2023-04-12T00:44:33.233Z,8.80
2023-04-12T00:45:06.842Z,8.80
2023-04-12T00:45:39.638Z,8.80
2023-04-12T00:46:12.155Z,8.80
2023-04-12T00:46:44.793Z,8.80
2023-04-12T00:47:17.655Z,8.90
2023-04-12T00:47:49.541Z,8.90
2023-04-12T00:48:23.189Z,8.90
2023-04-12T00:48:56.823Z,8.90
2023-04-12T00:49:30.783Z,8.90
2023-04-12T00:50:04.933Z,8.90
2023-04-12T00:50:36.758Z,8.90
2023-04-12T00:51:09.188Z,8.90
2023-04-12T00:51:42.358Z,8.90
2023-04-12T00:52:15.567Z,8.90
2023-04-12T00:52:47.541Z,8.90
2023-04-12T00:53:20.756Z,8.90
2023-04-12T00:53:57.306Z,8.90
2023-04-12T00:54:29.964Z,8.90
2023-04-12T00:55:04.151Z,8.90
2023-04-12T00:55:36.052Z,8.90
2023-04-12T00:56:11.747Z,8.90
2023-04-12T00:56:45.120Z,8.90
2023-04-12T00:57:16.965Z,8.90
2023-04-12T00:57:48.769Z,8.80
2023-04-12T00:58:24.141Z,8.80
2023-04-12T00:58:56.679Z,8.80
2023-04-12T00:59:28.564Z,8.80
2023-04-12T01:00:01.326Z,8.80
2023-04-12T01:00:34.422Z,8.90
2023-04-12T01:01:07.125Z,8.90
2023-04-12T01:01:41.226Z,8.90
2023-04-12T01:02:13.490Z,8.90
2023-04-12T01:02:48.229Z,8.90
2023-04-12T01:03:24.234Z,8.90
2023-04-12T01:04:01.050Z,8.80
2023-04-12T01:04:34.431Z,8.80
2023-04-12T01:05:07.519Z,8.80
2023-04-12T01:05:49.074Z,8.80
2023-04-12T01:06:30.400Z,8.80
2023-04-12T01:07:15.676Z,8.90
2023-04-12T01:07:54.116Z,8.90
2023-04-12T01:08:35.394Z,8.80
2023-04-12T01:09:20.407Z,8.80
2023-04-12T01:10:01.730Z,8.80
2023-04-12T01:10:43.791Z,8.70
2023-04-12T01:11:27.170Z,8.70
2023-04-12T01:12:08.821Z,8.70
2023-04-12T01:12:49.420Z,8.70
2023-04-12T01:13:31.214Z,8.70
2023-04-12T01:14:07.626Z,8.70
2023-04-12T01:14:46.907Z,8.70
2023-04-12T01:15:20.953Z,8.70
2023-04-12T01:15:58.718Z,8.70
2023-04-12T01:16:40.711Z,8.70
2023-04-12T01:17:21.533Z,8.70
2023-04-12T01:17:59.473Z,8.70
2023-04-12T01:18:40.573Z,8.70
2023-04-12T01:19:30.695Z,8.70
2023-04-12T01:20:13.154Z,8.80
2023-04-12T01:20:51.304Z,8.80
2023-04-12T01:21:32.083Z,8.80
2023-04-12T01:22:13.524Z,8.80
2023-04-12T01:23:18.859Z,8.80
2023-04-12T01:24:13.925Z,8.80
2023-04-12T01:25:04.630Z,8.80
2023-04-12T01:25:47.644Z,8.80
2023-04-12T01:26:34.338Z,8.70
2023-04-12T01:27:16.167Z,8.70
2023-04-12T01:27:53.043Z,8.70
2023-04-12T01:28:34.378Z,8.70
2023-04-12T01:29:10.850Z,8.70
2023-04-12T01:29:43.203Z,8.70
2023-04-12T01:30:18.801Z,8.70
2023-04-12T01:30:51.735Z,8.70
2023-04-12T01:31:26.021Z,8.70
2023-04-12T01:32:01.279Z,8.70
2023-04-12T01:32:34.698Z,8.80
2023-04-12T01:33:10.480Z,8.80
2023-04-12T01:33:46.086Z,8.80
2023-04-12T01:34:18.388Z,8.80
2023-04-12T01:34:51.822Z,8.80
2023-04-12T01:35:29.007Z,8.80
2023-04-12T01:36:06.263Z,8.90
2023-04-12T01:36:41.083Z,8.90
2023-04-12T01:37:16.228Z,8.90
2023-04-12T01:37:48.366Z,8.80
2023-04-12T01:38:21.354Z,8.80
2023-04-12T01:38:55.910Z,8.80
2023-04-12T01:39:28.539Z,8.80
2023-04-12T01:40:01.106Z,8.90
2023-04-12T01:40:34.334Z,8.90
2023-04-12T01:41:08.286Z,8.80
2023-04-12T01:41:41.897Z,8.80
2023-04-12T01:42:20.006Z,8.80
2023-04-12T01:43:04.414Z,8.80
2023-04-12T01:43:42.736Z,8.80
2023-04-12T01:44:14.940Z,8.80
2023-04-12T01:44:47.099Z,8.80
2023-04-12T01:45:20.031Z,8.70
2023-04-12T01:45:51.941Z,8.70
2023-04-12T01:46:23.997Z,8.80
2023-04-12T01:46:57.569Z,8.70
2023-04-12T01:47:30.140Z,8.70
2023-04-12T01:48:04.266Z,8.70
2023-04-12T01:48:37.242Z,8.80
2023-04-12T01:49:12.795Z,8.80
2023-04-12T01:49:52.778Z,8.80
2023-04-12T01:50:34.365Z,8.80
2023-04-12T01:51:10.570Z,8.80
2023-04-12T01:51:51.917Z,8.80
2023-04-12T01:52:30.529Z,8.80
2023-04-12T01:53:06.174Z,8.80
2023-04-12T01:53:47.733Z,8.80
2023-04-12T01:54:22.982Z,8.90
2023-04-12T01:54:59.795Z,8.80
2023-04-12T01:55:34.023Z,8.80
2023-04-12T01:56:09.523Z,8.80
2023-04-12T01:56:47.414Z,8.70
2023-04-12T01:57:20.484Z,8.80
2023-04-12T01:57:55.068Z,8.70
2023-04-12T01:58:28.133Z,8.70
2023-04-12T01:59:02.217Z,8.70
2023-04-12T01:59:40.350Z,8.70
2023-04-12T02:00:13.760Z,8.60
2023-04-12T02:00:46.828Z,8.60
2023-04-12T02:01:20.237Z,8.60
2023-04-12T02:01:52.492Z,8.70
2023-04-12T02:02:25.575Z,8.60
2023-04-12T02:02:59.603Z,8.60
2023-04-12T02:03:32.176Z,8.60
2023-04-12T02:04:06.456Z,8.60
2023-04-12T02:04:40.330Z,8.50
2023-04-12T02:05:12.964Z,8.50
2023-04-12T02:05:44.863Z,8.50
2023-04-12T02:06:20.744Z,8.40
2023-04-12T02:06:52.662Z,8.50
2023-04-12T02:07:24.550Z,8.40
2023-04-12T02:07:57.011Z,8.30
2023-04-12T02:08:30.264Z,8.30
2023-04-12T02:09:03.697Z,8.30
2023-04-12T02:09:38.173Z,8.20
2023-04-12T02:10:15.275Z,8.30
2023-04-12T02:10:47.273Z,8.30
2023-04-12T02:11:19.085Z,8.20
2023-04-12T02:11:51.876Z,8.20
2023-04-12T02:12:23.710Z,8.30
2023-04-12T02:12:58.788Z,8.20
2023-04-12T02:13:31.542Z,8.30
2023-04-12T02:14:03.363Z,8.20
2023-04-12T02:14:35.709Z,8.20
2023-04-12T02:15:09.421Z,8.20
2023-04-12T02:15:41.246Z,8.30
2023-04-12T02:16:14.232Z,8.30
2023-04-12T02:16:47.913Z,8.30
2023-04-12T02:17:20.037Z,8.30
2023-04-12T02:17:53.763Z,8.20
2023-04-12T02:18:27.841Z,8.20
2023-04-12T02:18:59.647Z,8.30
2023-04-12T02:19:32.253Z,8.20
2023-04-12T02:20:09.426Z,8.20
2023-04-12T02:20:41.263Z,8.30
2023-04-12T02:21:13.084Z,8.20
2023-04-12T02:21:46.905Z,8.20
2023-04-12T02:22:18.726Z,8.20
2023-04-12T02:22:52.085Z,8.20
2023-04-12T02:23:26.945Z,8.20
2023-04-12T02:23:58.871Z,8.20
2023-04-12T02:24:30.977Z,8.20
2023-04-12T02:25:06.213Z,8.20
2023-04-12T02:25:39.370Z,8.20
2023-04-12T02:26:11.491Z,8.20
2023-04-12T02:26:44.250Z,8.30
2023-04-12T02:27:18.680Z,8.30
2023-04-12T02:27:50.493Z,8.20
2023-04-12T02:28:24.718Z,8.30
2023-04-12T02:28:56.597Z,8.30
2023-04-12T02:29:28.647Z,8.30
2023-04-12T02:30:01.444Z,8.20
2023-04-12T02:30:33.333Z,8.20
2023-04-12T02:31:05.646Z,8.20
2023-04-12T02:31:38.986Z,8.20
2023-04-12T02:32:12.900Z,8.20
2023-04-12T02:32:45.884Z,8.20
2023-04-12T02:33:17.705Z,8.10
2023-04-12T02:33:50.536Z,8.10
2023-04-12T02:34:22.580Z,8.10
2023-04-12T02:34:54.383Z,8.10
2023-04-12T02:35:27.370Z,8.10
2023-04-12T02:35:59.429Z,8.20
2023-04-12T02:36:31.570Z,8.20
2023-04-12T02:37:04.669Z,8.20
2023-04-12T02:37:36.940Z,8.20
2023-04-12T02:38:09.075Z,8.10
2023-04-12T02:38:41.841Z,8.10
2023-04-12T02:39:13.968Z,8.10
2023-04-12T02:39:45.785Z,8.20
2023-04-12T02:40:18.567Z,8.20
2023-04-12T02:40:50.519Z,8.10
2023-04-12T02:41:23.454Z,8.10
2023-04-12T02:41:56.655Z,8.10
2023-04-12T02:42:28.479Z,8.10
2023-04-12T02:43:00.384Z,8.10
2023-04-12T02:43:35.134Z,8.10
2023-04-12T02:44:06.907Z,8.10
2023-04-12T02:44:38.707Z,8.10
2023-04-12T02:45:12.521Z,8.10
2023-04-12T02:45:44.383Z,8.10
2023-04-12T02:46:21.565Z,8.00
2023-04-12T02:46:54.841Z,8.00
2023-04-12T02:47:29.018Z,7.90
2023-04-12T02:48:01.038Z,7.90
2023-04-12T02:48:33.857Z,8.00
2023-04-12T02:49:05.673Z,8.00
2023-04-12T02:49:37.524Z,7.90
2023-04-12T02:50:11.096Z,7.90
2023-04-12T02:50:42.906Z,7.90
2023-04-12T02:51:15.353Z,7.90
2023-04-12T02:51:48.125Z,7.90
2023-04-12T02:52:20.161Z,7.90
2023-04-12T02:52:51.936Z,7.90
2023-04-12T02:53:24.694Z,7.90
2023-04-12T02:53:56.751Z,7.90
2023-04-12T02:54:29.284Z,7.90
2023-04-12T02:55:02.133Z,7.90
2023-04-12T02:55:33.979Z,8.00
2023-04-12T02:56:06.735Z,8.00
2023-04-12T02:56:39.566Z,8.00
2023-04-12T02:57:11.532Z,8.00
2023-04-12T02:57:44.656Z,8.00
2023-04-12T02:58:17.544Z,7.90
2023-04-12T02:58:50.997Z,7.90
2023-04-12T02:59:22.936Z,7.90
2023-04-12T02:59:55.937Z,7.90
2023-04-12T03:00:27.764Z,7.90
2023-04-12T03:01:00.205Z,7.90
2023-04-12T03:01:33.775Z,7.90
2023-04-12T03:02:05.811Z,7.90
2023-04-12T03:02:38.023Z,7.90
2023-04-12T03:03:10.997Z,7.90
2023-04-12T03:03:42.984Z,7.90
2023-04-12T03:04:14.863Z,7.80
2023-04-12T03:04:47.174Z,7.80
2023-04-12T03:05:20.280Z,7.80
2023-04-12T03:05:52.811Z,7.80
2023-04-12T03:06:24.672Z,7.80
2023-04-12T03:06:57.534Z,7.90
2023-04-12T03:07:30.850Z,7.80
2023-04-12T03:08:02.689Z,7.80
2023-04-12T03:08:36.009Z,7.80
2023-04-12T03:09:08.244Z,7.70
2023-04-12T03:09:42.464Z,7.70
2023-04-12T03:10:14.255Z,7.80
2023-04-12T03:10:47.007Z,7.70
2023-04-12T03:11:18.822Z,7.70
2023-04-12T03:11:50.821Z,7.70
2023-04-12T03:12:23.670Z,7.60
2023-04-12T03:12:55.610Z,7.60
2023-04-12T03:13:27.448Z,7.70
2023-04-12T03:14:01.603Z,7.70
2023-04-12T03:14:33.425Z,7.60
2023-04-12T03:15:06.192Z,7.60
2023-04-12T03:15:39.115Z,7.60
2023-04-12T03:16:23.337Z,7.60
2023-04-12T03:16:55.229Z,7.60
2023-04-12T03:17:28.057Z,7.70
2023-04-12T03:17:59.898Z,7.70
2023-04-12T03:18:31.708Z,7.70
2023-04-12T03:19:04.136Z,7.60
2023-04-12T03:19:37.192Z,7.70
2023-04-12T03:20:10.091Z,7.70
2023-04-12T03:20:45.314Z,7.70
2023-04-12T03:21:19.708Z,7.70
2023-04-12T03:21:51.479Z,7.60
2023-04-12T03:22:23.356Z,7.70
2023-04-12T03:22:56.199Z,7.60
2023-04-12T03:23:27.968Z,7.60
2023-04-12T03:23:59.800Z,7.60
2023-04-12T03:24:34.734Z,7.60
2023-04-12T03:25:08.629Z,7.60
2023-04-12T03:25:41.074Z,7.50
2023-04-12T03:26:13.925Z,7.50
2023-04-12T03:26:45.827Z,7.40
2023-04-12T03:27:17.632Z,7.40
2023-04-12T03:27:50.466Z,7.40
2023-04-12T03:28:23.294Z,7.40
2023-04-12T03:28:58.369Z,7.30
2023-04-12T03:29:32.778Z,7.30
2023-04-12T03:30:06.370Z,7.30
2023-04-12T03:30:38.235Z,7.30
2023-04-12T03:31:12.501Z,7.30
2023-04-12T03:31:44.372Z,7.30
2023-04-12T03:32:16.460Z,7.30
2023-04-12T03:32:49.285Z,7.30
2023-04-12T03:33:21.278Z,7.30
2023-04-12T03:33:53.258Z,7.30
2023-04-12T03:34:27.720Z,7.30
2023-04-12T03:35:00.234Z,7.30
2023-04-12T03:35:32.114Z,7.30
2023-04-12T03:36:05.853Z,7.30
2023-04-12T03:36:38.966Z,7.30
2023-04-12T03:37:10.897Z,7.30
2023-04-12T03:37:44.499Z,7.30
2023-04-12T03:38:16.390Z,7.40
2023-04-12T03:38:48.151Z,7.30
2023-04-12T03:39:21.009Z,7.40
2023-04-12T03:39:52.801Z,7.40
2023-04-12T03:40:24.582Z,7.40
2023-04-12T03:40:57.320Z,7.50
2023-04-12T03:41:29.951Z,7.40
2023-04-12T03:42:01.747Z,7.40
2023-04-12T03:42:34.516Z,7.50
2023-04-12T03:43:06.323Z,7.50
2023-04-12T03:43:38.148Z,7.50
2023-04-12T03:44:10.927Z,7.50
2023-04-12T03:44:44.156Z,7.50
2023-04-12T03:45:16.122Z,7.50
2023-04-12T03:45:49.048Z,7.50
2023-04-12T03:46:20.914Z,7.50
2023-04-12T03:46:52.912Z,7.50
2023-04-12T03:47:24.790Z,7.40
2023-04-12T03:47:57.600Z,7.50
2023-04-12T03:48:29.467Z,7.50
2023-04-12T03:49:01.404Z,7.40
2023-04-12T03:49:34.350Z,7.40
2023-04-12T03:50:44.229Z,7.50
2023-04-12T03:51:17.263Z,7.50
2023-04-12T03:51:50.759Z,7.50
2023-04-12T03:52:22.589Z,7.50
2023-04-12T03:52:55.361Z,7.50
2023-04-12T03:53:27.389Z,7.50
2023-04-12T03:54:02.561Z,7.50
2023-04-12T03:54:35.328Z,7.50
2023-04-12T03:55:08.123Z,7.50
2023-04-12T03:55:40.465Z,7.50
2023-04-12T03:56:13.359Z,7.50
2023-04-12T03:56:46.267Z,7.50
2023-04-12T03:57:19.273Z,7.50
2023-04-12T03:57:51.237Z,7.50
2023-04-12T03:58:23.208Z,7.50
2023-04-12T03:58:55.999Z,7.50
2023-04-12T03:59:28.049Z,7.50
2023-04-12T04:00:01.319Z,7.50
2023-04-12T04:00:34.101Z,7.50
2023-04-12T04:01:06.689Z,7.50
2023-04-12T04:01:38.925Z,7.50
2023-04-12T04:02:12.148Z,7.50
2023-04-12T04:02:44.137Z,7.40
2023-04-12T04:03:16.370Z,7.40
2023-04-12T04:03:48.598Z,7.40
2023-04-12T04:04:22.075Z,7.40
2023-04-12T04:04:54.186Z,7.40
2023-04-12T04:05:26.050Z,7.40
2023-04-12T04:05:58.857Z,7.40
2023-04-12T04:06:30.896Z,7.50
2023-04-12T04:07:03.908Z,7.50
2023-04-12T04:07:36.465Z,7.50
2023-04-12T04:08:08.821Z,7.50
2023-04-12T04:08:42.408Z,7.50
2023-04-12T04:09:15.396Z,7.50
2023-04-12T04:09:47.291Z,7.50
2023-04-12T04:10:19.186Z,7.60
2023-04-12T04:10:51.968Z,7.60
2023-04-12T04:11:24.383Z,7.60
2023-04-12T04:11:56.578Z,7.60
2023-04-12T04:12:29.394Z,7.60
2023-04-12T04:13:01.323Z,7.60
2023-04-12T04:13:33.171Z,7.60
2023-04-12T04:14:06.071Z,7.60
2023-04-12T04:14:37.885Z,7.60
2023-04-12T04:15:11.889Z,7.60
2023-04-12T04:15:44.726Z,7.60
2023-04-12T04:16:16.652Z,7.60
2023-04-12T04:16:48.633Z,7.60
2023-04-12T04:17:21.481Z,7.60
2023-04-12T04:17:53.469Z,7.60
2023-04-12T04:18:25.371Z,7.70
2023-04-12T04:18:57.629Z,7.70
2023-04-12T04:19:30.399Z,7.70
2023-04-12T04:20:02.502Z,7.70
2023-04-12T04:20:34.291Z,7.80
2023-04-12T04:21:07.890Z,7.80
2023-04-12T04:21:40.811Z,7.90
2023-04-12T04:22:13.673Z,7.90
2023-04-12T04:22:48.005Z,7.90
2023-04-12T04:23:19.821Z,7.90
2023-04-12T04:23:51.876Z,7.90
2023-04-12T04:24:25.100Z,7.90
2023-04-12T04:24:58.201Z,7.90
2023-04-12T04:25:30.474Z,8.00
2023-04-12T04:26:05.047Z,7.90
2023-04-12T04:26:38.371Z,7.80
2023-04-12T04:27:10.809Z,7.90
2023-04-12T04:27:44.700Z,7.80
2023-04-12T04:28:18.203Z,7.90
2023-04-12T04:28:50.124Z,7.80
2023-04-12T04:29:21.947Z,7.90
2023-04-12T04:29:53.749Z,7.90
2023-04-12T04:30:27.884Z,7.90
2023-04-12T04:31:03.917Z,7.90
2023-04-12T04:31:37.597Z,7.90
2023-04-12T04:32:09.504Z,8.00
2023-04-12T04:32:41.564Z,8.00
2023-04-12T04:33:13.580Z,8.00
2023-04-12T04:33:46.335Z,8.00
2023-04-12T04:34:18.965Z,8.00
2023-04-12T04:34:51.238Z,8.00
2023-04-12T04:35:24.126Z,8.00
2023-04-12T04:35:56.497Z,8.00
2023-04-12T04:36:28.344Z,8.10
2023-04-12T04:37:01.490Z,8.10
2023-04-12T04:37:35.242Z,8.00
2023-04-12T04:38:07.299Z,8.00
2023-04-12T04:38:40.326Z,8.00
2023-04-12T04:39:12.132Z,8.00
2023-04-12T04:39:43.969Z,8.00
2023-04-12T04:40:17.419Z,8.00
2023-04-12T04:40:53.217Z,8.00
2023-04-12T04:41:25.608Z,8.00
2023-04-12T04:41:58.399Z,8.00
2023-04-12T04:42:32.584Z,8.10
2023-04-12T04:43:05.841Z,8.10
2023-04-12T04:43:42.534Z,8.10
2023-04-12T04:44:14.481Z,8.10
2023-04-12T04:44:47.680Z,8.10
2023-04-12T04:45:21.921Z,8.20
2023-04-12T04:45:56.823Z,8.20
2023-04-12T04:46:30.342Z,8.10
2023-04-12T04:47:02.142Z,8.10
2023-04-12T04:47:33.977Z,8.10
2023-04-12T04:48:07.560Z,8.10
2023-04-12T04:48:40.752Z,8.10
2023-04-12T04:49:12.827Z,8.10
2023-04-12T04:49:48.008Z,8.10
2023-04-12T04:50:21.764Z,8.10
2023-04-12T04:50:53.552Z,8.10
2023-04-12T04:51:26.437Z,8.10
2023-04-12T04:51:58.215Z,8.10
2023-04-12T04:52:29.978Z,8.10
2023-04-12T04:53:02.793Z,8.10
2023-04-12T04:53:34.598Z,8.10
2023-04-12T04:54:06.580Z,8.00
2023-04-12T04:54:39.952Z,8.00
2023-04-12T04:55:12.984Z,8.00
2023-04-12T04:55:44.867Z,8.00
2023-04-12T04:56:17.608Z,8.00
2023-04-12T04:56:49.386Z,8.00
2023-04-12T04:57:21.855Z,8.00
2023-04-12T04:57:54.655Z,8.00
2023-04-12T04:58:27.026Z,8.00
2023-04-12T04:59:00.073Z,8.00
2023-04-12T04:59:33.548Z,8.00
2023-04-12T05:00:10.946Z,8.00
2023-04-12T05:00:45.879Z,8.00
2023-04-12T05:01:19.142Z,8.10
2023-04-12T05:01:52.084Z,8.10
2023-04-12T05:02:25.912Z,8.10
2023-04-12T05:02:57.874Z,8.10
2023-04-12T05:03:31.038Z,8.10
2023-04-12T05:04:04.377Z,8.10
2023-04-12T05:04:37.508Z,8.20
2023-04-12T05:05:10.533Z,8.20
2023-04-12T05:05:43.343Z,8.10
2023-04-12T05:06:15.211Z,8.10
2023-04-12T05:06:47.054Z,8.10
2023-04-12T05:07:19.847Z,8.10
2023-04-12T05:07:51.707Z,8.10
2023-04-12T05:08:25.035Z,8.10
2023-04-12T05:08:57.064Z,8.10
2023-04-12T05:09:28.965Z,8.20
2023-04-12T05:10:01.741Z,8.20
2023-04-12T05:10:33.625Z,8.20
2023-04-12T05:11:06.050Z,8.20
2023-04-12T05:11:38.792Z,8.20
2023-04-12T05:12:10.659Z,8.20
2023-04-12T05:12:42.862Z,8.30
2023-04-12T05:13:15.660Z,8.30
2023-04-12T05:13:47.459Z,8.30
2023-04-12T05:14:20.487Z,8.30
2023-04-12T05:14:52.287Z,8.30
2023-04-12T05:15:24.140Z,8.30
2023-04-12T05:15:56.939Z,8.30
2023-04-12T05:16:30.276Z,8.30
2023-04-12T05:17:02.105Z,8.30
2023-04-12T05:17:35.118Z,8.30
2023-04-12T05:18:06.991Z,8.30
2023-04-12T05:18:39.990Z,8.30
2023-04-12T05:19:11.809Z,8.30
2023-04-12T05:19:44.709Z,8.30
2023-04-12T05:20:18.321Z,8.30
2023-04-12T05:20:50.492Z,8.30
2023-04-12T05:21:24.055Z,8.30
2023-04-12T05:21:57.294Z,8.30
2023-04-12T05:22:29.559Z,8.30
2023-04-12T05:23:01.390Z,8.30
2023-04-12T05:23:36.912Z,8.40
2023-04-12T05:24:09.091Z,8.40
2023-04-12T05:24:40.943Z,8.40
2023-04-12T05:25:13.838Z,8.40
2023-04-12T05:25:47.017Z,8.40
2023-04-12T05:26:18.968Z,8.40
2023-04-12T05:26:52.063Z,8.40
2023-04-12T05:27:23.985Z,8.40
2023-04-12T05:27:55.796Z,8.40
2023-04-12T05:28:28.656Z,8.40
2023-04-12T05:29:01.504Z,8.40
2023-04-12T05:29:33.325Z,8.40
2023-04-12T05:30:07.826Z,8.40
2023-04-12T05:30:40.054Z,8.40
2023-04-12T05:31:12.953Z,8.50
2023-04-12T05:31:46.203Z,8.40
2023-04-12T05:32:18.105Z,8.40
2023-04-12T05:32:50.992Z,8.40
2023-04-12T05:33:22.858Z,8.30
2023-04-12T05:33:54.723Z,8.30
2023-04-12T05:34:27.482Z,8.40
2023-04-12T05:34:59.262Z,8.30
2023-04-12T05:35:31.374Z,8.40
2023-04-12T05:36:04.495Z,8.40
2023-04-12T05:36:36.328Z,8.40
2023-04-12T05:37:08.230Z,8.40
2023-04-12T05:37:41.148Z,8.40
2023-04-12T05:38:13.078Z,8.40
2023-04-12T05:38:44.979Z,8.50
2023-04-12T05:39:20.085Z,8.40
2023-04-12T05:39:52.581Z,8.40
2023-04-12T05:40:24.437Z,8.40
2023-04-12T05:40:57.388Z,8.40
2023-04-12T05:41:29.178Z,8.40
2023-04-12T05:42:01.288Z,8.40
2023-04-12T05:42:33.171Z,8.40
2023-04-12T05:43:05.988Z,8.40
2023-04-12T05:43:37.867Z,8.40
2023-04-12T05:44:09.704Z,8.40
2023-04-12T05:44:44.761Z,8.40
2023-04-12T05:45:16.600Z,8.30
2023-04-12T05:45:51.078Z,8.40
2023-04-12T05:46:23.996Z,8.30
2023-04-12T05:46:57.188Z,8.30
2023-04-12T05:47:29.222Z,8.40
2023-04-12T05:48:02.846Z,8.40
2023-04-12T05:48:34.770Z,8.40
2023-04-12T05:49:06.718Z,8.40
2023-04-12T05:49:39.735Z,8.40
2023-04-12T05:50:11.553Z,8.40
2023-04-12T05:50:50.848Z,8.40
2023-04-12T05:51:37.772Z,8.50
2023-04-12T05:52:12.666Z,8.50
2023-04-12T05:52:45.436Z,8.50
2023-04-12T05:53:17.238Z,8.50
2023-04-12T05:53:49.024Z,8.40
2023-04-12T05:54:22.185Z,8.40
2023-04-12T05:54:54.096Z,8.50
2023-04-12T05:55:25.945Z,8.50
2023-04-12T05:55:58.695Z,8.50
2023-04-12T05:56:30.565Z,8.50
2023-04-12T05:57:02.543Z,8.50
2023-04-12T05:57:35.548Z,8.50
2023-04-12T05:58:07.405Z,8.50
2023-04-12T05:58:39.238Z,8.40
2023-04-12T05:59:12.289Z,8.40
2023-04-12T05:59:45.343Z,8.40
2023-04-12T06:00:18.678Z,8.50
2023-04-12T06:00:51.365Z,8.50
2023-04-12T06:01:24.740Z,8.50
2023-04-12T06:01:58.024Z,8.50
2023-04-12T06:02:30.756Z,8.50
2023-04-12T06:03:04.674Z,8.50
2023-04-12T06:03:41.564Z,8.50
2023-04-12T06:04:14.743Z,8.50
2023-04-12T06:04:50.814Z,8.50
2023-04-12T06:05:23.858Z,8.50
2023-04-12T06:05:56.685Z,8.50
2023-04-12T06:06:30.087Z,8.50
2023-04-12T06:07:01.952Z,8.60
2023-04-12T06:07:34.789Z,8.50
2023-04-12T06:08:06.751Z,8.60
2023-04-12T06:08:39.696Z,8.60
2023-04-12T06:09:12.321Z,8.70
2023-04-12T06:09:44.100Z,8.70
2023-04-12T06:10:18.253Z,8.70
2023-04-12T06:10:50.185Z,8.80
2023-04-12T06:11:22.259Z,8.80
2023-04-12T06:11:55.005Z,8.70
2023-04-12T06:12:26.942Z,8.70
2023-04-12T06:12:58.769Z,8.70
2023-04-12T06:13:31.648Z,8.80
2023-04-12T06:14:03.430Z,8.80
2023-04-12T06:14:35.296Z,8.80
2023-04-12T06:15:08.795Z,8.80
2023-04-12T06:15:40.834Z,8.80
2023-04-12T06:16:13.506Z,8.80
2023-04-12T06:16:46.307Z,8.80
2023-04-12T06:17:19.465Z,8.80
2023-04-12T06:17:51.360Z,8.80
2023-04-12T06:18:24.099Z,8.80
2023-04-12T06:18:56.157Z,8.80
2023-04-12T06:19:28.213Z,8.80
2023-04-12T06:20:01.024Z,8.80
2023-04-12T06:20:32.866Z,8.70
2023-04-12T06:21:05.460Z,8.70
2023-04-12T06:21:38.307Z,8.70
2023-04-12T06:22:10.301Z,8.70
2023-04-12T06:22:42.149Z,8.70
2023-04-12T06:23:14.940Z,8.70
2023-04-12T06:23:46.824Z,8.70
2023-04-12T06:24:18.657Z,8.70
2023-04-12T06:24:51.751Z,8.70
2023-04-12T06:25:24.091Z,8.70
2023-04-12T06:25:55.978Z,8.70
2023-04-12T06:26:37.267Z,8.70
2023-04-12T06:27:11.435Z,8.70
2023-04-12T06:27:43.818Z,8.70
2023-04-12T06:28:16.601Z,8.70
2023-04-12T06:28:48.550Z,8.70
2023-04-12T06:29:20.611Z,8.70
2023-04-12T06:29:53.735Z,8.70
2023-04-12T06:30:25.783Z,8.80
2023-04-12T06:30:57.644Z,8.80
2023-04-12T06:31:30.484Z,8.70
2023-04-12T06:32:02.524Z,8.80
2023-04-12T06:32:36.176Z,8.80
2023-04-12T06:33:09.032Z,8.80
2023-04-12T06:33:40.948Z,8.80
2023-04-12T06:34:12.828Z,8.80
2023-04-12T06:34:45.641Z,8.80
2023-04-12T06:35:17.462Z,8.80
2023-04-12T06:35:49.318Z,8.80
2023-04-12T06:36:22.157Z,8.90
2023-04-12T06:36:53.947Z,8.80
2023-04-12T06:37:25.981Z,8.80
2023-04-12T06:37:58.757Z,8.80
2023-04-12T06:38:30.705Z,8.80
2023-04-12T06:39:03.117Z,8.80
2023-04-12T06:39:36.003Z,8.80
2023-04-12T06:40:09.265Z,8.90
2023-04-12T06:40:41.384Z,8.90
2023-04-12T06:41:14.215Z,8.90
2023-04-12T06:41:47.483Z,8.90
2023-04-12T06:42:19.357Z,8.90
2023-04-12T06:42:52.141Z,8.90
2023-04-12T06:43:23.927Z,8.90
2023-04-12T06:43:56.690Z,8.90
2023-04-12T06:44:28.540Z,8.90
2023-04-12T06:45:01.357Z,8.90
2023-04-12T06:45:33.152Z,8.90
2023-04-12T06:46:06.598Z,9.00
2023-04-12T06:46:38.517Z,9.00
2023-04-12T06:47:10.398Z,9.00
2023-04-12T06:47:44.683Z,9.00
2023-04-12T06:48:16.551Z,9.00
2023-04-12T06:48:48.406Z,9.00
2023-04-12T06:49:21.239Z,9.00
2023-04-12T06:49:56.107Z,9.00
2023-04-12T06:50:29.186Z,9.10
2023-04-12T06:51:01.484Z,9.10
2023-04-12T06:51:35.335Z,9.20
2023-04-12T06:52:08.244Z,9.20
2023-04-12T06:52:40.036Z,9.30
2023-04-12T06:53:13.398Z,9.30
2023-04-12T06:53:46.228Z,9.30
2023-04-12T06:54:18.069Z,9.30
2023-04-12T06:54:49.914Z,9.30
2023-04-12T06:55:22.742Z,9.30
2023-04-12T06:55:54.580Z,9.20
2023-04-12T06:56:26.393Z,9.30
2023-04-12T06:57:00.964Z,9.30
2023-04-12T06:57:32.839Z,9.30
2023-04-12T06:58:05.682Z,9.40
2023-04-12T06:58:37.572Z,9.40
2023-04-12T06:59:10.492Z,9.40
2023-04-12T06:59:42.331Z,9.40
2023-04-12T07:00:14.864Z,9.50
2023-04-12T07:00:47.725Z,9.50
2023-04-12T07:01:19.787Z,9.50
2023-04-12T07:01:52.748Z,9.60
2023-04-12T07:02:24.672Z,9.60
2023-04-12T07:02:59.185Z,9.60
2023-04-12T07:03:33.171Z,9.60
2023-04-12T07:04:06.194Z,9.60
2023-04-12T07:04:38.013Z,9.60
2023-04-12T07:05:11.120Z,9.60
2023-04-12T07:05:43.178Z,9.60
2023-04-12T07:06:25.208Z,9.60
2023-04-12T07:06:58.989Z,9.60
2023-04-12T07:07:30.773Z,9.60
2023-04-12T07:08:03.554Z,9.60
2023-04-12T07:08:36.291Z,9.60
2023-04-12T07:09:09.112Z,9.60
2023-04-12T07:09:41.049Z,9.70
2023-04-12T07:10:13.146Z,9.70
2023-04-12T07:10:45.908Z,9.70
2023-04-12T07:11:21.628Z,9.70
2023-04-12T07:11:55.036Z,9.70
2023-04-12T07:12:26.818Z,9.60
2023-04-12T07:13:03.449Z,9.70
2023-04-12T07:13:36.028Z,9.70
2023-04-12T07:14:08.772Z,9.70
2023-04-12T07:14:41.997Z,9.70
2023-04-12T07:15:16.514Z,9.70
2023-04-12T07:15:49.011Z,9.70
2023-04-12T07:16:21.056Z,9.70
2023-04-12T07:16:53.917Z,9.70
2023-04-12T07:17:26.938Z,9.70
2023-04-12T07:18:01.257Z,9.80
2023-04-12T07:18:33.144Z,9.70
2023-04-12T07:19:05.015Z,9.70
2023-04-12T07:19:37.838Z,9.80
2023-04-12T07:20:11.249Z,9.80
2023-04-12T07:20:44.057Z,9.80
2023-04-12T07:21:17.542Z,9.80
2023-04-12T07:21:50.398Z,9.80
2023-04-12T07:22:22.516Z,9.80
2023-04-12T07:22:55.644Z,9.80
2023-04-12T07:23:27.624Z,9.80
2023-04-12T07:24:01.436Z,9.80
2023-04-12T07:24:33.503Z,9.80
2023-04-12T07:25:10.076Z,9.80